KLWT/LWT METAR and TAF weather

Enter ICAO airport designator
Station Type Date Time Source
KLWT METAR 2021/03/08 02:54 UTC NOAA

KLWT 080254Z AUTO 13004KT 10SM OVC090 02/M03 A3002 RMK AO2 SLP189 T00171033 51008


Station Type Date Time Source
KLWT Decoded METAR 2021/03/08 02:54 UTC NOAA

LEWISTOWN MUNICIPAL AIRPORT , MT, United States (KLWT) 47-03N 109-27W
Mar 07, 2021 - 09:54 PM EST / 2021.03.08 0254 UTC
Wind: from the SE (130 degrees) at 5 MPH (4 KT):0
Visibility: 10 mile(s):0
Sky conditions: overcast
Temperature: 35.1 F (1.7 C)
Dew Point: 26.1 F (-3.3 C)
Relative Humidity: 69%
Pressure (altimeter): 30.02 in. Hg (1016 hPa)
Pressure tendency: 0.02 inches (0.8 hPa) higher than three hours ago
ob: KLWT 080254Z AUTO 13004KT 10SM OVC090 02/M03 A3002 RMK AO2 SLP189 T00171033 51008
cycle: 3

Station Type Date Time Source
KLWT TAF 2021/03/07 18:42 UTC NOAA

TAF KLWT 071740Z 0718/0818 24009KT P6SM BKN070
FM080300 15008KT P6SM SCT200

Example: see airport list